Time;durP1;ratioP1;P1;durP2;ratioP2;P2;SDS_P1;SDS_P2;PMS_P1;PMS_P2;Temp;Humidity;BMP_temperature;BMP_pressure;BME280_temperature;BME280_humidity;BME280_pressure;Samples;Min_cycle;Max_cycle;Signal;HPM_P1;HPM_P2
2022/05/29 00:00:06;;;;;;;22.65;3.80;;;;;;;8.49;92.86;101434.94;2056005;28;20158;-65
2022/05/29 00:01:12;;;;;;;17.23;2.90;;;;;;;8.47;92.25;101426.06;2056405;28;21089;-67
2022/05/29 00:02:15;;;;;;;22.33;3.47;;;;;;;8.46;93.10;101434.06;2055475;28;45642;-67
2022/05/29 00:03:17;;;;;;;20.70;3.15;;;;;;;8.46;92.64;101423.41;2055570;28;43451;-68
2022/05/29 00:04:20;;;;;;;19.00;3.05;;;;;;;8.47;92.44;101430.50;2055290;28;35662;-66
2022/05/29 00:05:26;;;;;;;20.63;3.88;;;;;;;8.46;93.16;101428.72;2056028;28;20084;-67
2022/05/29 00:06:27;;;;;;;16.70;3.33;;;;;;;8.44;92.59;101425.19;2055869;28;42416;-67
2022/05/29 00:07:29;;;;;;;13.05;3.00;;;;;;;8.45;93.16;101426.94;2054743;28;45606;-67
2022/05/29 00:08:36;;;;;;;17.95;3.47;;;;;;;8.48;93.22;101429.59;2054946;28;44348;-67
2022/05/29 00:09:41;;;;;;;19.13;3.33;;;;;;;8.52;93.59;101428.69;2055655;28;41948;-67
2022/05/29 00:10:43;;;;;;;20.88;3.97;;;;;;;8.52;93.33;101434.91;2054980;28;45157;-66
2022/05/29 00:11:46;;;;;;;16.75;3.22;;;;;;;8.52;92.86;101428.69;2054482;28;44878;-67
2022/05/29 00:12:52;;;;;;;28.88;3.58;;;;;;;8.55;93.27;101434.00;2055607;28;45518;-67
2022/05/29 00:13:54;;;;;;;15.60;2.92;;;;;;;8.54;92.11;101429.56;2055419;28;45770;-67
2022/05/29 00:14:59;;;;;;;17.33;2.92;;;;;;;8.55;92.75;101431.34;2058537;28;20055;-67
2022/05/29 00:16:03;;;;;;;15.43;2.90;;;;;;;8.58;92.14;101428.66;2057541;28;20793;-67
2022/05/29 00:17:05;;;;;;;14.50;2.80;;;;;;;8.57;91.98;101426.88;2056992;28;43346;-67
2022/05/29 00:18:07;;;;;;;18.27;3.55;;;;;;;8.61;92.74;101431.28;2062623;28;43642;-66
2022/05/29 00:19:09;;;;;;;14.93;3.13;;;;;;;8.61;92.72;101420.59;2062584;28;43703;-67
2022/05/29 00:20:11;;;;;;;14.77;3.30;;;;;;;8.62;91.80;101425.06;2055264;28;45495;-68
2022/05/29 00:21:13;;;;;;;19.60;4.03;;;;;;;8.62;91.63;101419.72;2055254;28;44046;-64
2022/05/29 00:22:19;;;;;;;16.00;3.13;;;;;;;8.64;91.43;101422.38;2058599;28;45413;-67
2022/05/29 00:23:21;;;;;;;17.90;2.42;;;;;;;8.64;92.01;101415.25;2063821;28;35744;-67
2022/05/29 00:24:24;;;;;;;16.80;3.08;;;;;;;8.63;91.27;101413.47;2062761;28;44964;-66
2022/05/29 00:25:25;;;;;;;12.20;2.40;;;;;;;8.66;91.40;101409.91;2063457;28;41993;-67
2022/05/29 00:26:27;;;;;;;13.82;2.75;;;;;;;8.66;91.65;101410.78;2063484;28;42892;-68
2022/05/29 00:27:28;;;;;;;15.25;2.95;;;;;;;8.67;91.42;101403.66;2063620;28;43699;-67
2022/05/29 00:28:30;;;;;;;13.88;3.15;;;;;;;8.69;91.82;101408.09;2063040;28;45463;-66
2022/05/29 00:29:35;;;;;;;14.82;2.97;;;;;;;8.68;91.73;101403.66;2063808;28;46354;-68
2022/05/29 00:30:37;;;;;;;12.90;2.80;;;;;;;8.70;91.28;101403.63;2063683;28;44818;-67
2022/05/29 00:31:38;;;;;;;18.08;3.50;;;;;;;8.71;91.61;101392.06;2063527;28;45641;-67
2022/05/29 00:32:40;;;;;;;17.85;3.13;;;;;;;8.71;91.71;101398.28;2063053;28;46046;-66
2022/05/29 00:33:47;;;;;;;22.30;3.50;;;;;;;8.70;91.40;101401.84;2063907;28;45704;-67
2022/05/29 00:34:53;;;;;;;14.80;2.75;;;;;;;8.71;91.11;101397.41;2064149;28;20085;-66
2022/05/29 00:35:55;;;;;;;16.42;3.05;;;;;;;8.70;90.47;101395.63;2063614;28;44514;-66
2022/05/29 00:36:58;;;;;;;14.52;3.17;;;;;;;8.70;90.34;101393.84;2063344;28;43913;-66
2022/05/29 00:38:00;;;;;;;19.85;3.47;;;;;;;8.72;90.39;101399.16;2063136;28;45905;-66
2022/05/29 00:39:11;;;;;;;16.77;2.88;;;;;;;8.70;90.28;101393.84;2062377;28;42915;-66
2022/05/29 00:40:34;;;;;;;15.35;3.42;;;;;;;8.71;89.99;101397.41;2063324;28;46334;-68
2022/05/29 00:41:38;;;;;;;14.73;2.90;;;;;;;8.74;89.64;101392.03;2063170;28;45100;-65
2022/05/29 00:42:40;;;;;;;18.58;2.85;;;;;;;8.73;88.89;101391.16;2062944;28;45122;-65
2022/05/29 00:43:41;;;;;;;17.02;2.70;;;;;;;8.73;89.12;101384.94;2063141;28;44799;-65
2022/05/29 00:44:43;;;;;;;17.25;3.15;;;;;;;8.72;89.00;101392.06;2063621;28;42159;-66
2022/05/29 00:45:58;;;;;;;9.75;2.13;;;;;;;8.73;88.25;101385.81;2065445;28;43132;-65
2022/05/29 00:47:06;;;;;;;13.48;2.50;;;;;;;8.75;88.46;101388.47;2054717;28;46014;-65
2022/05/29 00:48:14;;;;;;;16.25;2.20;;;;;;;8.74;87.71;101382.25;2057354;28;44181;-66
2022/05/29 00:49:18;;;;;;;10.85;2.15;;;;;;;8.76;88.54;101390.25;2062388;28;45306;-66
2022/05/29 00:50:23;;;;;;;12.10;2.08;;;;;;;8.76;87.21;101385.78;2063928;28;43480;-65
2022/05/29 00:51:26;;;;;;;18.27;2.72;;;;;;;8.81;87.14;101384.88;2062480;28;34971;-66
2022/05/29 00:52:28;;;;;;;14.23;2.17;;;;;;;8.79;86.71;101385.78;2055036;28;45837;-65
2022/05/29 00:53:33;;;;;;;23.90;3.10;;;;;;;8.81;86.80;101383.09;2054753;28;44148;-65
2022/05/29 00:54:45;;;;;;;15.57;2.40;;;;;;;8.82;85.62;101375.97;2062833;28;44245;-65
2022/05/29 00:55:57;;;;;;;12.38;2.35;;;;;;;8.81;85.95;101380.44;2064722;28;44362;-66
2022/05/29 00:56:59;;;;;;;11.75;1.92;;;;;;;8.82;86.22;101376.84;2068594;28;35509;-65
2022/05/29 00:58:04;;;;;;;18.05;2.20;;;;;;;8.82;85.54;101368.84;2063516;28;44657;-65
2022/05/29 00:59:13;;;;;;;14.80;2.25;;;;;;;8.84;85.85;101374.16;2062975;28;44107;-66
2022/05/29 01:00:25;;;;;;;14.70;1.88;;;;;;;8.85;85.32;101366.16;2064562;28;20046;-66
2022/05/29 01:01:31;;;;;;;15.55;2.33;;;;;;;8.86;84.26;101365.22;2068706;28;44968;-66
2022/05/29 01:02:35;;;;;;;12.45;1.90;;;;;;;8.86;83.82;101364.34;2063484;28;44469;-66
2022/05/29 01:03:37;;;;;;;15.25;1.70;;;;;;;8.85;84.70;101371.50;2063489;28;45892;-65
2022/05/29 01:04:42;;;;;;;11.95;1.83;;;;;;;8.86;84.16;101369.69;2063590;28;36015;-65
2022/05/29 01:05:44;;;;;;;10.45;1.25;;;;;;;8.87;83.64;101372.34;2063403;28;20884;-66
2022/05/29 01:06:49;;;;;;;9.88;2.08;;;;;;;8.86;83.97;101367.03;2063320;28;44669;-67
2022/05/29 01:08:02;;;;;;;11.13;1.63;;;;;;;8.86;84.06;101367.03;2062554;28;45523;-67
2022/05/29 01:09:09;;;;;;;12.57;1.63;;;;;;;8.85;83.81;101370.59;2062856;28;46333;-67
2022/05/29 01:10:11;;;;;;;15.23;2.30;;;;;;;8.86;84.01;101364.34;2064457;28;44877;-67
2022/05/29 01:11:47;;;;;;;13.80;2.00;;;;;;;8.87;84.24;101367.00;2070618;28;36947;-67
2022/05/29 01:13:19;;;;;;;16.13;2.10;;;;;;;8.88;84.41;101370.56;2062710;28;43317;-67
2022/05/29 01:14:41;;;;;;;14.50;1.77;;;;;;;8.89;84.10;101359.00;2052792;28;45465;-66
2022/05/29 01:16:00;;;;;;;28.73;2.28;;;;;;;8.87;83.94;101366.13;2063653;28;44806;-67
2022/05/29 01:17:30;;;;;;;12.00;1.98;;;;;;;8.87;84.06;101355.47;2063745;28;38061;-67
2022/05/29 01:18:47;;;;;;;12.02;1.40;;;;;;;8.85;83.69;101354.59;2062727;28;45653;-66
2022/05/29 01:20:21;;;;;;;14.02;1.83;;;;;;;8.84;83.28;101363.50;2063163;28;46005;-67
2022/05/29 01:22:08;;;;;;;9.98;1.77;;;;;;;8.82;84.44;101358.16;2062738;28;45315;-67
2022/05/29 01:23:37;;;;;;;14.13;1.73;;;;;;;8.83;83.33;101359.03;2071201;28;20038;-66
2022/05/29 01:25:27;;;;;;;15.27;1.83;;;;;;;8.82;84.55;101359.94;2062405;28;42316;-67
2022/05/29 01:27:32;;;;;;;12.07;1.73;;;;;;;8.82;83.98;101358.16;2062649;28;45764;-67
2022/05/29 01:28:46;;;;;;;14.93;1.63;;;;;;;8.82;84.31;101358.16;2063261;28;44672;-66
2022/05/29 01:30:21;;;;;;;10.98;1.50;;;;;;;8.81;84.44;101355.50;2064240;28;20027;-67
2022/05/29 01:31:55;;;;;;;9.80;1.98;;;;;;;8.79;83.96;101356.41;2062427;28;44349;-67
2022/05/29 01:33:21;;;;;;;17.67;2.35;;;;;;;8.79;84.27;101359.09;2063422;28;44327;-66
2022/05/29 01:34:47;;;;;;;20.10;2.58;;;;;;;8.77;84.38;101352.88;2064197;28;20934;-66
2022/05/29 01:36:11;;;;;;;14.27;1.95;;;;;;;8.79;84.57;101356.41;2063238;28;44490;-67
2022/05/29 01:37:35;;;;;;;13.20;2.40;;;;;;;8.79;85.20;101353.75;2062931;28;42948;-66
2022/05/29 01:38:51;;;;;;;10.70;1.90;;;;;;;8.79;85.00;101344.81;2063468;28;44241;-67
2022/05/29 01:40:22;;;;;;;14.80;2.53;;;;;;;8.78;84.76;101351.97;2062620;28;44483;-67
2022/05/29 01:41:48;;;;;;;13.38;2.00;;;;;;;8.79;85.95;101353.75;2062719;28;44193;-67
2022/05/29 01:43:26;;;;;;;16.13;2.95;;;;;;;8.78;84.98;101338.59;2063144;28;44889;-67
2022/05/29 01:44:46;;;;;;;14.90;2.65;;;;;;;8.78;85.79;101341.28;2050771;28;44559;-67
2022/05/29 01:46:07;;;;;;;12.43;2.28;;;;;;;8.78;85.45;101343.94;2062389;28;45260;-66
2022/05/29 01:47:22;;;;;;;11.30;2.72;;;;;;;8.79;86.21;101340.41;2068946;28;45617;-67
2022/05/29 01:49:06;;;;;;;15.20;2.78;;;;;;;8.78;85.50;101338.59;2062497;28;45130;-66
2022/05/29 01:50:19;;;;;;;22.92;2.45;;;;;;;8.76;85.83;101335.06;2062923;28;46202;-67
2022/05/29 01:51:32;;;;;;;15.25;2.45;;;;;;;8.77;86.23;101339.53;2062390;28;43387;-67
2022/05/29 01:52:54;;;;;;;14.88;2.38;;;;;;;8.81;85.81;101347.47;2064772;28;44278;-66
2022/05/29 01:54:12;;;;;;;15.05;1.75;;;;;;;8.79;85.58;101337.72;2062075;28;42903;-67
2022/05/29 01:55:40;;;;;;;13.50;2.42;;;;;;;8.81;86.21;101337.72;2062842;28;44999;-66
2022/05/29 01:56:50;;;;;;;14.95;2.13;;;;;;;8.81;86.33;101334.13;2062635;28;46319;-65
2022/05/29 01:58:01;;;;;;;17.83;2.38;;;;;;;8.81;86.18;101334.13;2067054;28;20042;-67
2022/05/29 01:59:09;;;;;;;13.98;2.30;;;;;;;8.82;86.64;101335.91;2062660;28;45520;-67
2022/05/29 02:00:17;;;;;;;15.77;2.13;;;;;;;8.83;86.15;101327.91;2055955;28;44677;-67
2022/05/29 02:01:26;;;;;;;15.23;2.35;;;;;;;8.84;86.75;101332.31;2062352;28;40990;-67
2022/05/29 02:02:38;;;;;;;12.68;2.00;;;;;;;8.86;85.83;101332.31;2054385;28;20091;-67
2022/05/29 02:03:50;;;;;;;13.93;2.40;;;;;;;8.84;86.92;101326.09;2057697;28;44899;-67
2022/05/29 02:05:00;;;;;;;14.07;2.33;;;;;;;8.86;85.57;101321.63;2062789;28;45610;-67
2022/05/29 02:07:47;;;;;;;10.00;2.03;;;;;;;8.85;85.99;101319.88;2064438;28;46124;-67
2022/05/29 02:08:14;;;;;;;14.93;2.08;;;;;;;8.85;85.89;101320.75;2063945;28;42696;-67
2022/05/29 02:09:20;;;;;;;12.15;1.95;;;;;;;8.84;86.47;101316.28;2062020;28;45151;-67
2022/05/29 02:10:43;;;;;;;10.80;1.85;;;;;;;8.84;85.98;101313.63;2064846;28;44459;-67
2022/05/29 02:11:49;;;;;;;8.95;1.77;;;;;;;8.83;86.08;101311.88;2070315;28;44261;-66
2022/05/29 02:12:58;;;;;;;11.70;1.85;;;;;;;8.84;85.53;101318.97;2061566;28;46199;-67
2022/05/29 02:14:08;;;;;;;14.77;2.20;;;;;;;8.84;86.45;101320.75;2062206;28;43093;-66
2022/05/29 02:15:16;;;;;;;12.10;1.95;;;;;;;8.82;86.34;101307.44;2063602;28;45496;-66
2022/05/29 02:16:31;;;;;;;14.35;2.05;;;;;;;8.83;86.03;101309.22;2062582;28;44441;-66
2022/05/29 02:17:42;;;;;;;13.00;2.28;;;;;;;8.84;86.42;101312.75;2058784;28;38895;-66
2022/05/29 02:19:29;;;;;;;16.92;2.35;;;;;;;8.83;85.83;101314.56;2057233;28;46328;-66
2022/05/29 02:20:40;;;;;;;15.55;2.08;;;;;;;8.85;85.77;101311.88;2062506;28;44284;-66
2022/05/29 02:21:50;;;;;;;14.23;1.80;;;;;;;8.84;86.40;101318.09;2062090;28;44272;-67
2022/05/29 02:23:09;;;;;;;17.45;1.92;;;;;;;8.83;86.13;101306.53;2049451;28;20983;-66
2022/05/29 02:24:20;;;;;;;13.48;1.90;;;;;;;8.86;86.41;101311.81;2057267;28;45517;-66
2022/05/29 02:25:26;;;;;;;14.10;1.95;;;;;;;8.86;86.03;101310.94;2052928;28;45222;-66
2022/05/29 02:26:34;;;;;;;13.65;2.17;;;;;;;8.86;86.40;101316.28;2055836;28;43340;-66
2022/05/29 02:27:51;;;;;;;14.57;2.22;;;;;;;8.85;86.86;101315.41;2060294;28;45361;-66
2022/05/29 02:29:03;;;;;;;14.45;1.90;;;;;;;8.84;85.94;101307.41;2055051;28;45839;-66
2022/05/29 02:30:06;;;;;;;13.38;2.33;;;;;;;8.85;86.31;101310.06;2054693;28;45328;-66
2022/05/29 02:31:45;;;;;;;10.30;1.73;;;;;;;8.85;86.38;101306.53;2054063;28;45249;-67
2022/05/29 02:33:10;;;;;;;12.15;1.88;;;;;;;8.86;87.20;101305.59;2055239;28;45121;-66
2022/05/29 02:34:39;;;;;;;14.68;2.10;;;;;;;8.86;86.80;101303.81;2054319;28;45591;-66
2022/05/29 02:35:51;;;;;;;12.77;1.80;;;;;;;8.85;86.80;101301.19;2054353;28;46200;-65
2022/05/29 02:37:32;;;;;;;16.17;2.70;;;;;;;8.86;87.18;101305.59;2054522;28;43425;-66
2022/05/29 02:38:50;;;;;;;13.70;2.55;;;;;;;8.86;86.13;101300.28;2054618;28;44063;-66
2022/05/29 02:40:07;;;;;;;13.18;1.70;;;;;;;8.86;86.26;101298.47;2054224;28;44294;-66
2022/05/29 02:41:19;;;;;;;17.13;2.53;;;;;;;8.87;86.61;101302.94;2049835;28;45227;-66
2022/05/29 02:42:48;;;;;;;15.45;2.13;;;;;;;8.88;86.67;101303.81;2057138;28;43625;-67
2022/05/29 02:44:31;;;;;;;12.50;2.28;;;;;;;8.88;86.71;101298.47;2053852;28;44500;-67
2022/05/29 02:45:51;;;;;;;12.77;1.77;;;;;;;8.88;86.25;101293.13;2061273;28;44250;-65
2022/05/29 02:47:27;;;;;;;;;;;;;;;8.88;86.46;101293.13;2057279;28;42533;-65
2022/05/29 02:49:00;;;;;;;11.75;2.30;;;;;;;8.89;86.57;101289.56;2063168;28;44707;-67
2022/05/29 02:50:43;;;;;;;12.00;1.75;;;;;;;8.88;87.20;101293.13;2058507;28;43577;-64
2022/05/29 02:51:55;;;;;;;14.05;1.88;;;;;;;8.88;87.53;101279.78;2054100;28;44339;-66
2022/05/29 02:53:02;;;;;;;20.17;2.58;;;;;;;8.88;87.89;101277.09;2062460;28;41232;-65
2022/05/29 02:54:12;;;;;;;13.32;2.13;;;;;;;8.87;87.32;101276.22;2062208;28;44337;-65
2022/05/29 02:55:13;;;;;;;11.45;1.88;;;;;;;8.87;87.75;101286.03;2064078;28;43747;-65
2022/05/29 02:56:16;;;;;;;12.18;2.03;;;;;;;8.86;89.00;101281.56;2069188;28;44933;-64
2022/05/29 02:57:20;;;;;;;13.25;2.17;;;;;;;8.86;89.53;101285.13;2062916;28;42110;-65
2022/05/29 02:58:29;;;;;;;16.20;2.67;;;;;;;8.86;89.32;101284.25;2062258;28;40901;-66
2022/05/29 02:59:39;;;;;;;13.73;2.08;;;;;;;8.85;88.56;101283.38;2062601;28;44341;-65
2022/05/29 03:01:32;;;;;;;12.63;1.77;;;;;;;8.84;89.18;101281.59;2062581;28;45247;-65
2022/05/29 03:03:15;;;;;;;14.50;1.92;;;;;;;8.84;89.62;101280.72;2054855;28;45885;-66
2022/05/29 03:04:36;;;;;;;14.70;2.08;;;;;;;8.82;89.22;101271.84;2062192;28;46219;-66
2022/05/29 03:06:28;;;;;;;15.60;2.38;;;;;;;8.81;89.39;101280.75;2057033;28;45767;-65
2022/05/29 03:08:03;;;;;;;16.02;2.38;;;;;;;8.81;89.62;101280.75;2061905;28;46594;-66
2022/05/29 03:09:44;;;;;;;15.35;2.20;;;;;;;8.81;89.35;101275.41;2061701;28;42420;-66
2022/05/29 03:11:25;;;;;;;11.27;2.33;;;;;;;8.82;89.40;101282.53;2062311;28;43904;-66
2022/05/29 03:12:45;;;;;;;8.93;2.38;;;;;;;8.82;89.48;101279.84;2062678;28;45117;-64
2022/05/29 03:13:52;;;;;;;12.30;2.05;;;;;;;8.82;89.59;101274.50;2062509;28;43390;-65
2022/05/29 03:15:28;;;;;;;14.55;1.95;;;;;;;8.82;89.81;101278.06;2062048;28;43856;-65
2022/05/29 03:17:06;;;;;;;13.10;1.98;;;;;;;8.85;90.28;101277.16;2058873;28;42973;-65
2022/05/29 03:18:50;;;;;;;17.23;2.20;;;;;;;8.83;89.56;101270.91;2064061;28;32042;-64
2022/05/29 03:20:27;;;;;;;11.63;2.72;;;;;;;8.83;89.12;101262.91;2063675;28;44647;-66
2022/05/29 03:22:17;;;;;;;14.32;2.55;;;;;;;8.85;89.46;101271.81;2063570;28;45203;-66
2022/05/29 03:23:46;;;;;;;14.55;2.30;;;;;;;8.86;89.23;101262.88;2064435;28;38431;-66
2022/05/29 03:25:15;;;;;;;12.73;2.38;;;;;;;8.87;89.68;101267.34;2063902;28;43199;-65
2022/05/29 03:26:40;;;;;;;14.63;2.67;;;;;;;8.87;89.46;101270.00;2064177;28;45514;-65
2022/05/29 03:27:47;;;;;;;11.40;2.10;;;;;;;8.88;89.32;101261.06;2063508;28;46027;-65
2022/05/29 03:29:12;;;;;;;11.20;2.10;;;;;;;8.89;89.56;101261.06;2058645;28;41213;-65
2022/05/29 03:30:23;;;;;;;11.43;2.15;;;;;;;8.90;89.79;101264.63;2058438;28;44915;-65
2022/05/29 03:31:30;;;;;;;10.43;2.15;;;;;;;8.89;89.77;101257.53;2056783;28;44517;-65
2022/05/29 03:32:36;;;;;;;12.20;2.13;;;;;;;8.90;89.83;101262.84;2057691;28;20051;-66
2022/05/29 03:33:46;;;;;;;12.10;2.50;;;;;;;8.91;90.21;101261.06;2056584;28;40582;-65
2022/05/29 03:34:48;;;;;;;17.23;2.80;;;;;;;8.92;89.70;101260.16;2056866;28;42983;-65
2022/05/29 03:35:52;;;;;;;18.05;2.47;;;;;;;8.95;89.78;101262.78;2055111;28;44243;-65
2022/05/29 03:36:54;;;;;;;13.38;2.17;;;;;;;8.94;90.04;101259.25;2055439;28;45903;-66
2022/05/29 03:37:58;;;;;;;12.35;2.70;;;;;;;8.96;89.17;101259.22;2063150;28;43879;-64
2022/05/29 03:39:02;;;;;;;12.10;2.15;;;;;;;8.97;89.86;101255.63;2056088;28;20162;-65
2022/05/29 03:40:04;;;;;;;10.45;2.13;;;;;;;8.98;89.22;101260.09;2055075;28;43019;-65
2022/05/29 03:41:13;;;;;;;9.40;1.88;;;;;;;8.99;89.89;101256.53;2055711;28;44274;-66
2022/05/29 03:42:16;;;;;;;11.18;2.33;;;;;;;9.00;89.93;101258.28;2058456;28;43626;-65
2022/05/29 03:43:20;;;;;;;13.27;2.25;;;;;;;9.02;89.59;101260.94;2062581;28;43808;-65
2022/05/29 03:44:24;;;;;;;13.18;2.45;;;;;;;9.00;89.04;101252.94;2063034;28;37551;-65
2022/05/29 03:45:27;;;;;;;13.30;2.10;;;;;;;9.03;90.06;101252.91;2062504;28;43331;-65
2022/05/29 03:46:29;;;;;;;15.27;2.50;;;;;;;9.06;89.42;101260.91;2054877;28;44619;-66
2022/05/29 03:47:32;;;;;;;14.02;2.33;;;;;;;9.06;89.10;101252.88;2055244;28;46321;-66
2022/05/29 03:48:36;;;;;;;14.55;2.17;;;;;;;9.10;88.59;101257.28;2063376;28;45113;-66
2022/05/29 03:49:38;;;;;;;17.30;2.38;;;;;;;9.11;89.04;101247.47;2057104;28;45669;-65
2022/05/29 03:50:40;;;;;;;13.13;2.53;;;;;;;9.12;89.37;101260.81;2055192;28;44490;-65
2022/05/29 03:51:42;;;;;;;13.27;2.35;;;;;;;9.13;89.49;101246.56;2055499;28;44671;-65
2022/05/29 03:52:48;;;;;;;11.65;2.40;;;;;;;9.16;88.57;101249.19;2055601;28;45999;-65
2022/05/29 03:53:50;;;;;;;15.85;2.47;;;;;;;9.19;88.91;101250.94;2063434;28;45454;-66
2022/05/29 03:54:54;;;;;;;10.35;2.38;;;;;;;9.21;88.46;101246.47;2062582;28;46238;-65
2022/05/29 03:55:57;;;;;;;17.98;2.20;;;;;;;9.23;88.67;101238.44;2056127;28;44557;-65
2022/05/29 03:56:59;;;;;;;16.00;2.28;;;;;;;9.25;88.31;101245.50;2055562;28;44145;-65
2022/05/29 03:58:01;;;;;;;14.25;2.88;;;;;;;9.27;89.16;101242.81;2055696;28;44364;-65
2022/05/29 03:59:03;;;;;;;13.00;2.60;;;;;;;9.28;88.47;101245.47;2055795;28;44502;-65
2022/05/29 04:00:10;;;;;;;16.25;2.78;;;;;;;9.28;88.88;101245.47;2056474;28;20986;-65
2022/05/29 04:01:14;;;;;;;14.15;2.45;;;;;;;9.29;88.71;101241.88;2056713;28;20059;-64
2022/05/29 04:02:16;;;;;;;14.32;2.88;;;;;;;9.31;88.59;101244.53;2055611;28;45462;-65
2022/05/29 04:03:18;;;;;;;13.75;2.67;;;;;;;9.32;89.22;101240.97;2063091;28;46223;-65
2022/05/29 04:04:20;;;;;;;14.00;2.40;;;;;;;9.35;88.47;101241.81;2063068;28;44431;-65
2022/05/29 04:05:24;;;;;;;13.55;2.20;;;;;;;9.35;88.51;101246.31;2054990;28;45500;-67
2022/05/29 04:06:34;;;;;;;14.48;2.63;;;;;;;9.37;88.96;101239.13;2055676;28;44198;-66
2022/05/29 04:13:03;;;;;;;15.20;2.60;;;;;;;9.35;88.35;101243.63;2063036;28;44335;-67
2022/05/29 04:14:06;;;;;;;11.60;2.10;;;;;;;9.37;87.99;101239.13;2054958;28;39842;-65
2022/05/29 04:15:08;;;;;;;9.23;1.88;;;;;;;9.36;88.60;101240.03;2055059;28;46147;-65
2022/05/29 04:16:10;;;;;;;14.25;2.67;;;;;;;9.35;88.80;101240.94;2063063;28;42339;-65
2022/05/29 04:17:19;;;;;;;16.55;2.50;;;;;;;9.33;87.88;101243.66;2062576;28;43420;-65
2022/05/29 04:18:22;;;;;;;12.82;2.33;;;;;;;9.33;88.05;101245.41;2055462;28;45836;-65
2022/05/29 04:19:28;;;;;;;10.35;1.92;;;;;;;9.33;88.82;101237.38;2057055;28;45521;-65
2022/05/29 04:20:30;;;;;;;13.30;2.30;;;;;;;9.35;88.25;101239.16;2055560;28;44611;-64
2022/05/29 04:21:33;;;;;;;13.25;2.50;;;;;;;9.35;88.28;101240.94;2062714;28;44325;-65
2022/05/29 04:22:34;;;;;;;14.30;2.42;;;;;;;9.36;88.40;101240.03;2062070;28;45678;-65
2022/05/29 04:23:37;;;;;;;14.38;2.75;;;;;;;9.34;89.30;101244.53;2056277;28;20701;-66
2022/05/29 04:24:38;;;;;;;15.45;2.13;;;;;;;9.33;88.86;101248.06;2055661;28;44737;-64
2022/05/29 04:25:44;;;;;;;11.88;2.35;;;;;;;9.32;88.29;101249.00;2055389;28;43518;-65
2022/05/29 04:26:46;;;;;;;15.27;2.55;;;;;;;9.33;89.00;101248.06;2056617;28;20086;-65
2022/05/29 04:27:48;;;;;;;13.07;2.55;;;;;;;9.34;88.42;101252.53;2062950;28;44121;-66
2022/05/29 04:28:50;;;;;;;14.38;3.05;;;;;;;9.34;89.02;101239.16;2063863;28;20185;-65
2022/05/29 04:29:51;;;;;;;13.73;2.50;;;;;;;9.36;89.18;101242.69;2054828;28;42987;-64
2022/05/29 04:30:53;;;;;;;12.73;2.50;;;;;;;9.36;88.89;101254.25;2055683;28;43048;-65
2022/05/29 04:33:17;;;;;;;12.20;2.20;;;;;;;9.35;88.38;101246.31;2055725;28;44302;-66
2022/05/29 04:34:18;;;;;;;9.40;1.83;;;;;;;9.33;88.67;101243.66;2055260;28;42746;-67
2022/05/29 04:35:20;;;;;;;12.20;2.15;;;;;;;9.35;88.51;101240.94;2055270;28;43291;-66
2022/05/29 04:36:22;;;;;;;11.93;2.10;;;;;;;9.38;88.15;101243.56;2062266;28;44395;-66
2022/05/29 04:37:27;;;;;;;14.25;2.45;;;;;;;9.39;88.68;101247.13;2063208;28;44340;-65
2022/05/29 04:38:28;;;;;;;13.68;2.30;;;;;;;9.41;89.07;101246.19;2060704;28;45064;-66
2022/05/29 04:39:34;;;;;;;13.95;2.20;;;;;;;9.40;88.52;101244.41;2063758;28;20043;-66
2022/05/29 04:40:39;;;;;;;9.55;1.92;;;;;;;9.41;89.05;101240.84;2062697;28;43663;-65
2022/05/29 04:41:41;;;;;;;11.07;2.05;;;;;;;9.41;88.62;101245.31;2064900;28;20145;-66
2022/05/29 04:42:43;;;;;;;13.82;2.45;;;;;;;9.43;87.98;101235.50;2063161;28;44916;-66
2022/05/29 04:43:44;;;;;;;11.77;2.17;;;;;;;9.42;88.72;101242.66;2063821;28;44183;-66
2022/05/29 04:44:46;;;;;;;12.82;2.33;;;;;;;9.43;88.53;101244.38;2063254;28;38679;-63
2022/05/29 04:45:54;;;;;;;14.30;2.00;;;;;;;9.39;88.42;101234.66;2063913;28;44371;-65
2022/05/29 04:47:01;;;;;;;13.10;2.53;;;;;;;9.41;88.25;101242.66;2062634;28;45206;-65
2022/05/29 04:48:03;;;;;;;10.07;1.90;;;;;;;9.44;87.69;101239.91;2064720;28;46336;-66
2022/05/29 04:49:05;;;;;;;12.00;2.22;;;;;;;9.46;88.33;101236.34;2064573;28;44368;-66
2022/05/29 04:50:07;;;;;;;16.40;2.20;;;;;;;9.48;87.45;101239.00;2065487;28;41434;-66
2022/05/29 04:51:09;;;;;;;10.63;2.28;;;;;;;9.48;87.95;101245.22;2062302;28;43324;-66
2022/05/29 04:52:11;;;;;;;13.68;2.08;;;;;;;9.49;87.97;101233.63;2062472;28;43289;-66
2022/05/29 04:53:12;;;;;;;12.10;2.20;;;;;;;9.50;87.07;101234.50;2062695;28;45160;-66
2022/05/29 04:54:17;;;;;;;10.27;1.77;;;;;;;9.53;87.94;101240.69;2064231;28;20942;-66
2022/05/29 04:55:19;;;;;;;11.85;2.10;;;;;;;9.51;87.47;101237.16;2062732;28;42850;-65
2022/05/29 04:56:20;;;;;;;13.13;1.67;;;;;;;9.52;87.03;101238.91;2063250;28;44461;-65
2022/05/29 04:57:24;;;;;;;12.50;2.25;;;;;;;9.56;87.44;101237.09;2063099;28;43894;-66
2022/05/29 04:58:28;;;;;;;11.90;1.70;;;;;;;9.59;86.63;101237.06;2063770;28;27222;-66
2022/05/29 04:59:30;;;;;;;11.85;1.85;;;;;;;9.55;86.83;101228.19;2063050;28;44354;-66
2022/05/29 05:00:35;;;;;;;10.45;1.10;;;;;;;9.61;86.84;101237.91;2063224;28;45824;-66
2022/05/29 05:01:38;;;;;;;9.90;1.63;;;;;;;9.63;87.02;101236.09;2063095;28;36600;-65
2022/05/29 05:02:40;;;;;;;12.02;1.58;;;;;;;9.63;86.39;101236.09;2063461;28;43172;-65
2022/05/29 05:03:42;;;;;;;9.55;1.42;;;;;;;9.63;86.40;101238.75;2063216;28;45124;-65
2022/05/29 05:04:47;;;;;;;14.60;1.80;;;;;;;9.65;85.76;101233.41;2064111;28;41317;-66
2022/05/29 05:05:48;;;;;;;10.85;1.75;;;;;;;9.68;85.02;101233.38;2054878;28;46213;-66
2022/05/29 05:06:54;;;;;;;12.32;1.52;;;;;;;9.72;85.12;101232.41;2062810;28;45424;-66
2022/05/29 05:07:56;;;;;;;10.35;1.38;;;;;;;9.69;85.04;101224.41;2061877;28;41980;-65
2022/05/29 05:08:58;;;;;;;9.27;1.40;;;;;;;9.67;85.56;101231.59;2063102;28;43937;-65
2022/05/29 05:09:59;;;;;;;12.43;1.45;;;;;;;9.66;84.78;101225.38;2062266;28;44696;-65
2022/05/29 05:11:01;;;;;;;8.68;1.27;;;;;;;9.68;85.15;101233.38;2055283;28;45433;-65
2022/05/29 05:12:03;;;;;;;10.07;1.48;;;;;;;9.72;85.14;101230.59;2055478;28;40706;-65
2022/05/29 05:13:08;;;;;;;9.82;1.95;;;;;;;9.72;84.70;101230.59;2055719;28;35869;-65
2022/05/29 05:14:10;;;;;;;12.32;1.25;;;;;;;9.75;84.65;101224.34;2054882;28;42752;-65
2022/05/29 05:15:15;;;;;;;10.30;1.40;;;;;;;9.73;85.12;101229.72;2061213;28;45565;-64
2022/05/29 05:16:17;;;;;;;13.40;1.65;;;;;;;9.74;84.34;101230.59;2062942;28;45314;-65
2022/05/29 05:17:19;;;;;;;10.60;1.38;;;;;;;9.79;85.02;101234.09;2063346;28;46827;-67
2022/05/29 05:18:20;;;;;;;10.35;1.23;;;;;;;9.84;84.54;101234.03;2063073;28;42135;-65
2022/05/29 05:19:23;;;;;;;11.48;1.30;;;;;;;9.83;84.57;101232.25;2062954;28;45366;-64
2022/05/29 05:20:25;;;;;;;16.17;1.55;;;;;;;9.81;84.83;101240.28;2063075;28;45843;-65
2022/05/29 05:21:26;;;;;;;8.77;1.27;;;;;;;9.86;84.76;101238.44;2064246;28;43880;-65
2022/05/29 05:22:28;;;;;;;10.52;1.67;;;;;;;9.90;84.47;101233.91;2062967;28;45135;-65
2022/05/29 05:23:31;;;;;;;10.73;1.40;;;;;;;9.91;85.10;101233.91;2063353;28;43084;-65
2022/05/29 05:24:34;;;;;;;13.30;1.23;;;;;;;9.91;84.98;101235.69;2063139;28;44282;-65
2022/05/29 05:25:37;;;;;;;10.13;1.50;;;;;;;9.88;85.32;101235.75;2063480;28;44444;-65
2022/05/29 05:26:39;;;;;;;16.10;1.40;;;;;;;9.86;84.61;101233.09;2062775;28;44404;-65
2022/05/29 05:27:40;;;;;;;11.05;1.65;;;;;;;9.87;84.58;101232.19;2062597;28;45553;-65
2022/05/29 05:28:42;;;;;;;14.07;2.45;;;;;;;9.80;83.76;101229.59;2062738;28;44429;-65
2022/05/29 05:29:44;;;;;;;12.05;1.55;;;;;;;9.82;84.11;101227.81;2063311;28;45894;-65
2022/05/29 05:30:47;;;;;;;11.85;1.35;;;;;;;9.75;84.31;101235.91;2061865;28;45950;-65
2022/05/29 05:31:49;;;;;;;13.88;1.60;;;;;;;9.76;85.30;101236.78;2062842;28;44452;-66
2022/05/29 05:32:50;;;;;;;11.07;1.52;;;;;;;9.79;84.79;101235.88;2062871;28;44489;-64
2022/05/29 05:33:52;;;;;;;12.95;1.40;;;;;;;9.77;85.62;101238.56;2062666;28;44830;-65
2022/05/29 05:34:54;;;;;;;10.68;1.38;;;;;;;9.75;85.74;101237.72;2063244;28;44120;-64
2022/05/29 05:35:56;;;;;;;10.60;1.70;;;;;;;9.75;86.77;101243.06;2063243;28;46066;-65